Time;durP1;ratioP1;P1;durP2;ratioP2;P2;SDS_P1;SDS_P2;PMS_P1;PMS_P2;Temp;Humidity;BMP_temperature;BMP_pressure;BME280_temperature;BME280_humidity;BME280_pressure;Samples;Min_cycle;Max_cycle;Signal;HPM_P1;HPM_P2
2021/11/17 02:28:08;;;;;;;7.15;3.35;;;;;;;9.51;60.63;99180.84;5091077;28;20132;-52
2021/11/17 02:30:40;;;;;;;5.30;2.83;;;;;;;9.46;60.31;99183.22;5091378;28;20038;-52
2021/11/17 02:33:26;;;;;;;5.78;2.90;;;;;;;9.42;60.98;99180.13;5091355;28;20025;-52
2021/11/17 02:36:29;;;;;;;6.30;2.85;;;;;;;9.52;60.56;99177.25;5091353;28;20020;-53
2021/11/17 02:39:09;;;;;;;9.20;3.40;;;;;;;9.55;60.27;99179.50;5094968;28;20084;-52
2021/11/17 02:41:45;;;;;;;4.30;2.92;;;;;;;9.51;60.01;99189.50;5094908;28;20397;-52
2021/11/17 02:44:42;;;;;;;5.65;3.20;;;;;;;9.34;60.43;99182.84;5094944;28;20148;-52
2021/11/17 02:47:30;;;;;;;4.47;2.70;;;;;;;9.43;60.66;99171.28;5094810;28;20028;-52
2021/11/17 02:50:34;;;;;;;8.43;3.40;;;;;;;9.51;60.44;99175.59;5094683;28;20043;-52
2021/11/17 02:53:30;;;;;;;11.23;3.00;;;;;;;9.56;60.31;99181.13;5035376;28;20052;-53
2021/11/17 02:56:06;;;;;;;9.65;3.15;;;;;;;9.63;60.04;99170.72;5052220;28;20063;-52
2021/11/17 02:58:37;;;;;;;8.63;4.22;;;;;;;9.66;59.73;99172.97;5052218;28;20033;-52
2021/11/17 03:01:51;;;;;;;4.60;2.88;;;;;;;9.70;59.76;99164.59;5052044;28;20147;-53
2021/11/17 03:05:07;;;;;;;7.25;2.78;;;;;;;9.90;59.23;99166.59;5012250;28;20046;-53
2021/11/17 03:08:14;;;;;;;7.10;3.93;;;;;;;9.94;59.08;99166.09;4992580;28;20046;-53
2021/11/17 03:10:53;;;;;;;;;;;;;;;10.00;59.24;99164.53;4954120;29;20050;-53
2021/11/17 03:13:19;;;;;;;7.10;3.55;;;;;;;10.03;58.87;99171.22;4953869;29;20013;-53
2021/11/17 03:16:15;;;;;;;6.10;3.80;;;;;;;9.91;58.72;99174.28;4953564;29;20612;-52
2021/11/17 03:19:10;;;;;;;3.40;2.75;;;;;;;9.91;59.25;99174.28;4953759;29;20028;-53
2021/11/17 03:21:57;;;;;;;3.55;2.15;;;;;;;9.94;58.22;99173.09;4953570;29;20071;-52
2021/11/17 03:24:31;;;;;;;8.32;3.78;;;;;;;9.89;58.10;99173.66;4953632;29;20075;-52
2021/11/17 03:27:34;;;;;;;11.07;4.30;;;;;;;9.76;58.30;99174.34;4972556;28;20120;-52
2021/11/17 03:30:21;;;;;;;4.90;3.10;;;;;;;9.54;59.08;99170.03;5008439;28;20563;-52
2021/11/17 03:33:11;;;;;;;6.47;2.88;;;;;;;9.66;59.80;99163.31;4992113;28;20058;-53
2021/11/17 03:36:17;;;;;;;7.65;3.30;;;;;;;9.78;58.95;99164.47;4992096;28;20066;-52
2021/11/17 03:39:21;;;;;;;5.83;4.20;;;;;;;9.67;59.15;99169.38;4989929;28;20523;-52
2021/11/17 03:42:13;;;;;;;6.70;3.70;;;;;;;9.55;59.60;99161.16;5033357;28;20529;-53
2021/11/17 03:45:16;;;;;;;5.03;3.70;;;;;;;9.53;59.54;99152.66;5073876;28;20100;-52
2021/11/17 03:47:48;;;;;;;5.30;3.60;;;;;;;9.55;59.71;99148.06;5092045;28;20043;-53
2021/11/17 03:50:35;;;;;;;9.88;3.40;;;;;;;9.63;59.64;99150.56;5092358;28;20111;-53
2021/11/17 03:53:14;;;;;;;4.13;2.70;;;;;;;9.71;58.87;99154.91;5093599;28;20028;-52
2021/11/17 03:55:55;;;;;;;9.45;5.07;;;;;;;9.57;59.23;99157.34;5093487;28;20371;-52
2021/11/17 03:59:02;;;;;;;6.40;3.58;;;;;;;9.49;59.65;99159.25;5093469;28;20038;-52
2021/11/17 04:01:43;;;;;;;7.03;3.90;;;;;;;9.46;59.73;99159.63;5087581;28;20398;-52
2021/11/17 04:04:18;;;;;;;4.78;2.90;;;;;;;9.44;59.85;99165.06;5093349;28;20036;-52
2021/11/17 04:07:09;;;;;;;9.15;4.53;;;;;;;9.50;59.88;99168.75;5093303;28;20056;-53
2021/11/17 04:10:01;;;;;;;5.68;3.67;;;;;;;9.31;60.03;99164.84;5092019;28;20036;-52
2021/11/17 04:12:37;;;;;;;10.77;4.88;;;;;;;9.39;60.93;99156.91;5093190;28;20024;-52
2021/11/17 04:15:18;;;;;;;5.53;3.08;;;;;;;9.59;59.85;99157.97;5093141;28;20032;-53
2021/11/17 04:18:01;;;;;;;7.90;4.10;;;;;;;9.66;60.13;99159.88;5093043;28;20498;-53
2021/11/17 04:20:52;;;;;;;5.45;3.47;;;;;;;9.98;59.54;99153.41;5093061;28;20035;-53
2021/11/17 04:23:48;;;;;;;7.20;3.53;;;;;;;10.14;59.13;99155.81;5091709;28;20498;-53
2021/11/17 04:26:23;;;;;;;6.63;3.50;;;;;;;10.15;58.48;99164.47;5092684;28;20093;-52
2021/11/17 04:28:48;;;;;;;11.27;3.95;;;;;;;9.99;59.09;99160.28;5092891;28;20107;-53
2021/11/17 04:31:33;;;;;;;11.38;3.50;;;;;;;10.06;58.94;99155.94;5092772;28;20098;-53
2021/11/17 04:34:30;;;;;;;8.20;3.70;;;;;;;9.96;58.93;99169.34;5092794;28;20103;-52
2021/11/17 04:37:17;;;;;;;5.63;3.80;;;;;;;9.95;59.29;99165.06;5091448;28;20027;-53
2021/11/17 04:40:14;;;;;;;8.50;4.03;;;;;;;10.01;59.32;99168.75;5092695;28;20076;-53
2021/11/17 04:42:47;;;;;;;8.68;3.70;;;;;;;10.10;59.11;99172.91;5092580;28;20024;-53
2021/11/17 04:45:42;;;;;;;13.55;4.70;;;;;;;10.24;58.94;99167.78;5091366;28;20028;-53
2021/11/17 04:48:26;;;;;;;9.80;4.13;;;;;;;10.19;58.49;99158.66;5125305;27;20094;-53
2021/11/17 04:50:54;;;;;;;5.65;3.58;;;;;;;10.17;58.78;99158.03;5092461;28;20032;-53
2021/11/17 04:53:30;;;;;;;13.55;3.92;;;;;;;10.20;58.66;99160.31;5092445;28;20028;-53
2021/11/17 04:56:08;;;;;;;;;;;;;;;10.14;58.61;99158.44;5092835;28;20462;-53
2021/11/17 04:58:44;;;;;;;6.85;4.38;;;;;;;10.05;58.47;99163.97;5125236;27;20518;-53
2021/11/17 05:01:16;;;;;;;7.05;3.88;;;;;;;9.88;58.57;99153.72;5091943;28;20428;-53
2021/11/17 05:04:05;;;;;;;4.40;3.30;;;;;;;9.85;59.18;99167.16;5091271;28;20382;-53
2021/11/17 05:06:55;;;;;;;7.32;5.82;;;;;;;9.75;59.03;99161.41;5092272;28;20101;-53
2021/11/17 05:09:32;;;;;;;8.07;3.50;;;;;;;9.52;59.57;99164.97;5091066;28;20103;-53
2021/11/17 05:12:15;;;;;;;12.02;3.90;;;;;;;9.40;59.91;99167.22;5090835;28;20493;-53
2021/11/17 05:14:41;;;;;;;5.50;3.58;;;;;;;9.29;60.42;99175.50;5090996;28;20024;-53
2021/11/17 05:17:35;;;;;;;8.27;4.18;;;;;;;9.29;60.66;99172.88;5092042;28;20020;-53
2021/11/17 05:20:31;;;;;;;7.70;5.82;;;;;;;9.36;60.64;99173.00;5049482;28;20090;-53
2021/11/17 05:23:10;;;;;;;6.80;3.63;;;;;;;9.30;60.60;99164.06;5032758;28;20033;-53
2021/11/17 05:26:11;;;;;;;8.68;3.70;;;;;;;9.24;60.52;99167.38;5049538;28;20029;-53
2021/11/17 05:29:01;;;;;;;8.93;4.80;;;;;;;9.24;60.91;99162.16;5009725;28;20060;-53
2021/11/17 05:31:36;;;;;;;11.57;5.07;;;;;;;9.36;60.86;99163.31;5009724;28;20049;-52
2021/11/17 05:34:34;;;;;;;10.73;5.07;;;;;;;9.43;60.42;99163.41;5009942;28;20555;-52
2021/11/17 05:36:59;;;;;;;23.45;8.27;;;;;;;9.26;60.61;99160.16;5001916;28;20038;-53
2021/11/17 05:39:57;;;;;;;29.35;8.10;;;;;;;9.22;61.22;99161.53;5009824;28;20029;-53
2021/11/17 05:42:42;;;;;;;18.38;12.45;;;;;;;9.28;61.47;99166.03;4991724;28;20065;-53
2021/11/17 05:45:28;;;;;;;37.40;7.93;;;;;;;9.26;61.25;99168.03;5009752;28;20038;-53
2021/11/17 05:48:12;;;;;;;24.52;5.95;;;;;;;9.42;61.05;99176.69;4999566;28;20479;-53
2021/11/17 05:51:22;;;;;;;24.35;5.85;;;;;;;9.27;60.98;99176.69;5009585;28;20113;-53
2021/11/17 05:53:57;;;;;;;28.08;5.90;;;;;;;9.13;61.33;99178.28;5004585;28;20049;-53
2021/11/17 05:56:36;;;;;;;42.00;8.47;;;;;;;9.08;61.31;99180.66;5028617;28;20623;-53
2021/11/17 05:59:23;;;;;;;20.13;5.45;;;;;;;9.18;61.24;99175.97;5049352;28;20473;-53
2021/11/17 06:02:07;;;;;;;17.52;5.22;;;;;;;9.29;61.24;99179.94;5056477;28;20044;-53
2021/11/17 06:04:32;;;;;;;20.70;5.47;;;;;;;9.32;60.87;99179.59;5091672;28;20032;-53
2021/11/17 06:06:59;;;;;;;19.55;5.55;;;;;;;9.23;60.83;99181.47;5091564;28;20092;-52
2021/11/17 06:09:24;;;;;;;33.78;13.25;;;;;;;9.22;61.02;99185.09;5091879;28;20024;-52
2021/11/17 06:12:03;;;;;;;12.63;5.25;;;;;;;9.32;60.94;99180.41;5092706;28;20047;-52
2021/11/17 06:14:33;;;;;;;10.23;4.75;;;;;;;9.31;60.99;99184.00;5095468;28;20024;-52
2021/11/17 06:17:03;;;;;;;17.05;4.80;;;;;;;9.25;60.72;99189.16;5095487;28;20115;-52
2021/11/17 06:19:33;;;;;;;22.10;5.93;;;;;;;9.18;60.89;99191.69;5095385;28;20389;-52
2021/11/17 06:22:00;;;;;;;20.52;6.60;;;;;;;9.10;61.18;99189.13;5095343;28;20039;-52
2021/11/17 06:24:28;;;;;;;22.15;8.30;;;;;;;9.04;61.15;99193.28;5095282;28;20024;-52
2021/11/17 06:26:54;;;;;;;29.48;7.18;;;;;;;9.04;61.58;99195.91;5094870;28;20598;-52
2021/11/17 06:29:28;;;;;;;33.20;7.55;;;;;;;9.02;61.76;99200.50;5095191;28;20024;-53
2021/11/17 06:31:55;;;;;;;27.02;9.00;;;;;;;9.03;61.47;99202.09;5094067;28;20039;-52
2021/11/17 06:34:36;;;;;;;21.92;5.45;;;;;;;9.05;61.63;99215.84;5095120;28;20568;-52
2021/11/17 06:37:11;;;;;;;12.45;5.30;;;;;;;9.06;61.62;99220.09;5095058;28;20525;-52
2021/11/17 06:39:40;;;;;;;20.20;5.70;;;;;;;9.14;61.91;99224.44;5095048;28;20043;-52
2021/11/17 06:42:10;;;;;;;24.33;11.68;;;;;;;9.17;61.51;99217.03;5094939;28;20028;-52
2021/11/17 06:44:37;;;;;;;11.75;5.90;;;;;;;9.19;61.28;99228.16;5094886;28;20504;-52
2021/11/17 06:47:03;;;;;;;21.35;11.75;;;;;;;9.14;61.21;99233.09;5094716;28;20031;-52
2021/11/17 06:49:29;;;;;;;16.20;6.20;;;;;;;9.06;61.33;99237.63;5094837;28;20018;-52
2021/11/17 06:51:55;;;;;;;9.48;5.72;;;;;;;9.03;61.77;99251.03;5093363;28;20032;-52
2021/11/17 06:54:21;;;;;;;14.25;9.68;;;;;;;9.02;61.90;99255.47;5093363;28;20392;-52
2021/11/17 06:56:46;;;;;;;16.20;5.80;;;;;;;9.12;61.73;99255.25;5093307;28;20182;-52
2021/11/17 06:59:12;;;;;;;18.38;11.70;;;;;;;9.16;61.43;99251.28;5094650;28;20085;-52
2021/11/17 07:01:38;;;;;;;16.90;9.95;;;;;;;9.09;61.40;99263.44;5094542;28;20026;-52
2021/11/17 07:04:04;;;;;;;13.43;5.93;;;;;;;9.00;61.79;99265.31;5094518;28;20508;-52
2021/11/17 07:06:30;;;;;;;18.00;6.88;;;;;;;9.05;61.73;99268.19;5094469;28;20046;-52
2021/11/17 07:08:56;;;;;;;10.77;6.45;;;;;;;9.02;62.00;99271.19;5094369;28;20062;-52
2021/11/17 07:11:24;;;;;;;8.60;5.03;;;;;;;8.99;61.58;99282.81;5093029;28;20021;-52
2021/11/17 07:13:49;;;;;;;15.32;9.45;;;;;;;9.04;61.88;99287.53;5094339;28;20019;-52
2021/11/17 07:16:15;;;;;;;19.73;13.32;;;;;;;9.13;61.91;99286.47;5094268;28;20420;-52
2021/11/17 07:18:41;;;;;;;12.07;6.05;;;;;;;9.22;61.54;99295.09;5092901;28;20032;-52
2021/11/17 07:21:07;;;;;;;8.55;6.10;;;;;;;9.25;61.55;99297.34;5094238;28;20016;-52
2021/11/17 07:23:33;;;;;;;15.07;6.72;;;;;;;9.35;61.15;99307.56;5092219;28;20031;-52
2021/11/17 07:25:59;;;;;;;18.95;9.82;;;;;;;9.45;60.87;99302.91;5092511;28;20520;-52
2021/11/17 07:28:25;;;;;;;15.02;6.15;;;;;;;9.40;61.28;99308.69;5092699;28;20062;-52
2021/11/17 07:30:51;;;;;;;19.88;6.40;;;;;;;9.44;61.02;99314.38;5093956;28;20099;-53
2021/11/17 07:33:17;;;;;;;10.57;5.95;;;;;;;9.43;61.20;99312.72;5093889;28;20175;-52
2021/11/17 07:35:46;;;;;;;6.50;5.05;;;;;;;9.48;60.70;99313.03;5092597;28;20032;-52
2021/11/17 07:38:16;;;;;;;7.68;4.93;;;;;;;9.53;60.74;99322.97;5093906;28;20028;-52
2021/11/17 07:40:44;;;;;;;11.93;5.38;;;;;;;9.57;60.39;99319.00;5093865;28;20031;-52
2021/11/17 07:43:12;;;;;;;8.70;4.72;;;;;;;9.57;60.43;99319.81;5093831;28;20054;-52
2021/11/17 07:45:41;;;;;;;9.63;4.95;;;;;;;9.56;60.19;99327.88;5093661;28;20493;-52
2021/11/17 07:48:07;;;;;;;1055.97;786.78;;;;;;;9.57;60.24;99324.25;5093589;28;20112;-52
2021/11/17 07:50:34;;;;;;;1999.90;999.90;;;;;;;9.55;60.22;99332.28;5093529;28;20458;-52
2021/11/17 07:52:59;;;;;;;833.58;449.67;;;;;;;9.46;60.71;99332.56;5093562;28;20100;-52
2021/11/17 07:55:26;;;;;;;140.75;65.38;;;;;;;9.49;60.60;99327.75;5092136;28;20058;-52
2021/11/17 07:57:53;;;;;;;60.70;29.38;;;;;;;9.51;60.31;99349.34;5093463;28;20028;-52
2021/11/17 08:00:28;;;;;;;31.85;17.58;;;;;;;9.58;60.32;99352.91;5092034;28;20016;-53
2021/11/17 08:02:54;;;;;;;49.45;22.10;;;;;;;9.61;59.99;99364.81;5093446;28;20036;-52
2021/11/17 08:05:22;;;;;;;27.58;14.07;;;;;;;9.63;59.88;99364.66;5093273;28;20024;-52
2021/11/17 08:07:50;;;;;;;38.25;14.23;;;;;;;9.59;60.06;99359.75;5093155;28;20123;-52
2021/11/17 08:10:20;;;;;;;21.75;12.25;;;;;;;9.70;59.69;99355.06;5093200;28;20562;-53
2021/11/17 08:12:45;;;;;;;24.80;10.60;;;;;;;9.78;59.58;99360.25;5093167;28;20024;-52
2021/11/17 08:15:12;;;;;;;18.73;8.35;;;;;;;9.88;59.38;99362.59;5093155;28;20026;-52
2021/11/17 08:17:39;;;;;;;19.65;7.10;;;;;;;9.98;58.88;99357.94;5091808;28;20394;-52
2021/11/17 08:20:13;;;;;;;18.80;8.43;;;;;;;9.95;58.76;99356.47;5093028;28;20052;-53
2021/11/17 08:22:44;;;;;;;18.17;7.53;;;;;;;9.95;59.05;99361.72;5093038;28;20081;-52
2021/11/17 08:25:12;;;;;;;22.10;8.00;;;;;;;10.01;58.59;99362.81;5092890;28;20028;-52
2021/11/17 08:27:38;;;;;;;14.52;7.70;;;;;;;10.01;58.63;99362.81;5092630;28;20036;-52
2021/11/17 08:30:10;;;;;;;16.58;6.43;;;;;;;10.04;58.68;99361.63;5092836;28;20028;-52
2021/11/17 08:32:39;;;;;;;11.55;5.38;;;;;;;10.11;58.55;99365.16;5092694;28;20052;-52
2021/11/17 08:35:07;;;;;;;11.52;5.30;;;;;;;10.20;58.11;99372.78;5090553;28;20035;-53
2021/11/17 08:37:34;;;;;;;14.95;5.30;;;;;;;10.27;58.29;99364.19;5091415;28;20082;-52
2021/11/17 08:40:01;;;;;;;16.90;5.20;;;;;;;10.43;57.67;99371.91;5091343;28;20020;-52
2021/11/17 08:42:27;;;;;;;10.02;5.22;;;;;;;10.52;56.96;99377.84;5091260;28;20512;-52
2021/11/17 08:44:52;;;;;;;13.13;5.63;;;;;;;10.47;57.24;99378.41;5092632;28;20031;-52
2021/11/17 08:47:19;;;;;;;11.43;5.07;;;;;;;10.36;57.06;99382.31;5092482;28;20073;-52
2021/11/17 08:49:45;;;;;;;15.57;6.88;;;;;;;10.26;57.48;99388.78;5092551;28;20016;-53
2021/11/17 08:52:12;;;;;;;11.18;6.05;;;;;;;10.26;57.52;99383.53;5092483;28;20025;-52
2021/11/17 08:54:39;;;;;;;8.57;4.82;;;;;;;10.23;57.54;99391.78;5091107;28;20044;-52
2021/11/17 08:57:06;;;;;;;13.73;4.28;;;;;;;10.17;57.91;99391.50;5092382;28;20024;-52
2021/11/17 08:59:32;;;;;;;15.00;5.28;;;;;;;10.20;57.64;99398.16;5092336;28;20063;-53
2021/11/17 09:02:00;;;;;;;12.90;4.53;;;;;;;10.11;57.74;99399.28;5092370;28;20431;-52
2021/11/17 09:04:27;;;;;;;8.13;4.40;;;;;;;10.04;58.17;99393.09;5092227;28;20378;-52
2021/11/17 09:06:52;;;;;;;10.27;4.55;;;;;;;9.95;58.16;99395.00;5092236;28;20016;-52
2021/11/17 09:09:20;;;;;;;14.50;8.65;;;;;;;9.90;58.18;99398.16;5092092;28;20027;-52
2021/11/17 09:11:46;;;;;;;8.10;4.88;;;;;;;9.94;58.48;99402.06;5092159;28;20537;-52
2021/11/17 09:14:12;;;;;;;12.65;6.38;;;;;;;9.95;58.11;99405.47;5092177;28;20031;-53
2021/11/17 09:16:40;;;;;;;10.05;4.82;;;;;;;9.97;58.23;99414.00;5092078;28;20141;-52
2021/11/17 09:19:08;;;;;;;14.05;4.20;;;;;;;10.10;58.25;99414.19;5092292;28;20024;-52
2021/11/17 09:21:36;;;;;;;9.65;4.57;;;;;;;10.31;57.83;99415.31;5092038;28;20027;-52
2021/11/17 09:24:04;;;;;;;30.88;20.00;;;;;;;10.38;57.71;99421.47;5091965;28;20073;-52
2021/11/17 09:26:31;;;;;;;10.77;5.00;;;;;;;10.30;57.69;99413.69;5091671;28;20059;-52
2021/11/17 09:28:57;;;;;;;10.10;4.32;;;;;;;10.24;58.04;99423.09;5091968;28;20029;-52
2021/11/17 09:31:25;;;;;;;8.73;3.72;;;;;;;10.30;58.05;99426.81;5091807;28;20024;-53
2021/11/17 09:33:52;;;;;;;581.67;454.17;;;;;;;10.25;57.57;99437.00;5091883;28;20028;-52
2021/11/17 09:36:21;;;;;;;152.02;88.57;;;;;;;10.24;58.03;99446.69;5091832;28;20032;-52
2021/11/17 09:38:51;;;;;;;103.97;71.63;;;;;;;10.26;57.80;99436.00;5090607;28;20116;-52
2021/11/17 09:41:20;;;;;;;11.85;7.32;;;;;;;10.26;57.67;99433.38;5091857;28;20028;-52
2021/11/17 09:43:49;;;;;;;16.77;10.85;;;;;;;10.16;57.96;99444.13;5090491;28;20031;-52
2021/11/17 09:46:21;;;;;;;11.95;4.65;;;;;;;10.19;58.00;99452.44;5093660;28;20031;-52
2021/11/17 09:48:54;;;;;;;10.90;4.68;;;;;;;10.22;58.15;99451.28;5094773;28;20107;-52
2021/11/17 09:51:31;;;;;;;11.05;4.07;;;;;;;10.31;57.93;99457.31;5095958;28;20043;-52
2021/11/17 09:54:00;;;;;;;13.10;4.75;;;;;;;10.25;57.84;99452.75;5094558;28;20408;-52
2021/11/17 09:56:34;;;;;;;11.13;3.28;;;;;;;10.27;57.91;99450.75;5095840;28;20443;-53
2021/11/17 09:59:11;;;;;;;14.57;4.68;;;;;;;10.30;57.86;99450.41;5095860;28;20035;-53
2021/11/17 10:01:50;;;;;;;15.15;5.20;;;;;;;10.35;57.27;99448.88;5095792;28;20032;-52
2021/11/17 10:04:24;;;;;;;16.58;4.28;;;;;;;10.32;57.55;99454.50;5094327;28;20020;-52
2021/11/17 10:10:16;;;;;;;8.07;2.20;;;;;;;10.51;56.51;99437.41;5095653;28;20073;-53
2021/11/17 10:13:04;;;;;;;9.18;2.63;;;;;;;10.64;56.33;99442.00;5095863;28;20032;-53
2021/11/17 10:15:37;;;;;;;5.53;2.22;;;;;;;10.79;55.31;99444.63;5094165;28;20547;-53
2021/11/17 10:18:21;;;;;;;16.02;2.58;;;;;;;10.64;55.99;99446.44;5095509;28;20035;-53
2021/11/17 10:20:47;;;;;;;15.73;3.47;;;;;;;10.78;55.86;99448.25;5095366;28;20020;-52
2021/11/17 10:23:30;;;;;;;11.50;2.10;;;;;;;10.82;55.65;99446.06;5095302;28;20081;-53
2021/11/17 10:26:04;;;;;;;10.88;3.20;;;;;;;10.97;55.12;99439.81;5095000;28;20493;-52
2021/11/17 10:28:43;;;;;;;11.07;1.67;;;;;;;10.95;54.43;99441.00;5095218;28;20081;-52
2021/11/17 10:31:21;;;;;;;10.65;1.35;;;;;;;10.99;54.35;99443.06;5095185;28;20035;-52
2021/11/17 10:34:17;;;;;;;14.27;2.33;;;;;;;11.06;54.38;99444.94;5093856;28;20024;-53
2021/11/17 10:36:54;;;;;;;4.03;1.35;;;;;;;10.98;54.01;99436.16;5093819;28;20048;-53
2021/11/17 10:39:24;;;;;;;6.90;1.90;;;;;;;10.84;54.33;99444.88;5095295;28;20028;-53
2021/11/17 10:42:01;;;;;;;6.68;1.30;;;;;;;10.78;54.17;99435.94;5093712;28;20028;-53
2021/11/17 10:44:53;;;;;;;5.82;2.17;;;;;;;10.82;54.33;99438.19;5093687;28;20027;-52
2021/11/17 10:47:32;;;;;;;6.28;2.00;;;;;;;11.02;53.78;99428.75;5093515;28;20477;-52
2021/11/17 10:50:04;;;;;;;14.60;1.42;;;;;;;11.20;53.01;99423.06;5093573;28;20060;-53
2021/11/17 10:52:39;;;;;;;5.70;1.45;;;;;;;11.32;52.54;99421.59;5094813;28;20027;-52
2021/11/17 10:55:19;;;;;;;4.47;1.55;;;;;;;11.27;52.47;99426.59;5094799;28;20024;-52
2021/11/17 10:57:46;;;;;;;5.47;1.13;;;;;;;11.25;52.37;99425.13;5092464;28;20032;-52
2021/11/17 11:00:15;;;;;;;45.33;26.92;;;;;;;11.29;52.13;99421.13;5094696;28;20055;-53
2021/11/17 11:02:42;;;;;;;10.63;3.92;;;;;;;11.44;51.66;99415.84;5094735;28;20052;-53
2021/11/17 11:05:13;;;;;;;5.22;1.40;;;;;;;11.53;51.74;99419.94;5093246;28;20056;-53
2021/11/17 11:08:04;;;;;;;6.47;2.20;;;;;;;11.52;52.11;99421.78;5094554;28;20490;-52
2021/11/17 11:10:39;;;;;;;7.88;2.60;;;;;;;11.77;51.17;99410.84;5094502;28;20545;-53
2021/11/17 11:13:11;;;;;;;7.03;1.13;;;;;;;11.87;50.36;99402.66;5093138;28;20122;-52
2021/11/17 11:15:40;;;;;;;9.45;1.15;;;;;;;12.03;49.99;99405.00;5094372;28;20505;-52
2021/11/17 11:18:09;;;;;;;5.82;1.10;;;;;;;12.15;49.03;99402.66;5094297;28;20035;-52
2021/11/17 11:20:57;;;;;;;5.28;1.00;;;;;;;12.28;48.80;99397.50;5094285;28;20028;-52
2021/11/17 11:23:33;;;;;;;5.93;1.50;;;;;;;12.14;48.41;99395.81;5093250;28;20043;-52
2021/11/17 11:26:11;;;;;;;3.13;1.30;;;;;;;11.84;49.44;99398.59;5093864;28;20020;-52
2021/11/17 11:28:50;;;;;;;2.47;0.80;;;;;;;11.64;49.46;99398.44;5094097;28;20103;-52
2021/11/17 11:31:23;;;;;;;4.25;1.13;;;;;;;11.61;49.41;99398.81;5094035;28;20034;-52
2021/11/17 11:34:09;;;;;;;3.33;0.85;;;;;;;11.54;49.78;99400.56;5094064;28;20035;-52
2021/11/17 11:36:43;;;;;;;;;;;;;;;11.50;49.86;99394.06;5086761;28;20040;-52
2021/11/17 11:39:09;;;;;;;39.22;30.25;;;;;;;11.31;50.06;99392.88;5094114;28;19998;-53
2021/11/17 11:41:46;;;;;;;9.45;4.40;;;;;;;11.30;50.86;99394.69;5092513;28;20445;-52
2021/11/17 11:44:23;;;;;;;4.70;1.40;;;;;;;11.54;50.48;99400.56;5094121;28;20028;-52
2021/11/17 11:47:10;;;;;;;4.57;3.13;;;;;;;11.69;49.75;99385.53;5093848;28;20035;-52
2021/11/17 11:49:49;;;;;;;3.75;2.00;;;;;;;11.71;49.67;99390.59;5061498;28;20448;-52
2021/11/17 11:52:21;;;;;;;3.03;1.52;;;;;;;11.75;49.41;99379.53;5093658;28;20027;-52
2021/11/17 11:54:58;;;;;;;1.70;0.80;;;;;;;11.90;49.13;99378.63;5093609;28;20489;-52
2021/11/17 11:57:47;;;;;;;3.70;1.08;;;;;;;11.99;49.11;99366.94;5093566;28;20103;-52
2021/11/17 12:00:27;;;;;;;2.95;1.25;;;;;;;12.16;48.90;99364.84;5093488;28;20036;-52
2021/11/17 12:02:59;;;;;;;2.80;1.13;;;;;;;12.22;47.66;99371.16;5092128;28;20048;-52
2021/11/17 12:05:37;;;;;;;6.93;0.80;;;;;;;12.59;47.49;99364.63;5093404;28;20024;-52
2021/11/17 12:08:24;;;;;;;2.63;1.25;;;;;;;12.93;45.71;99363.75;5093315;28;20027;-52
2021/11/17 12:11:05;;;;;;;4.22;0.73;;;;;;;13.23;44.67;99367.88;5093331;28;20398;-52
2021/11/17 12:13:55;;;;;;;5.60;0.93;;;;;;;13.51;44.22;99370.34;5093289;28;20028;-53
2021/11/17 12:16:26;;;;;;;5.95;2.13;;;;;;;13.81;43.88;99362.03;5093171;28;20582;-52
2021/11/17 12:19:10;;;;;;;4.50;0.70;;;;;;;13.87;44.21;99366.50;5091822;28;20107;-53
2021/11/17 12:21:39;;;;;;;1.77;0.80;;;;;;;13.89;44.08;99365.25;5093120;28;20066;-52
2021/11/17 12:24:11;;;;;;;6.28;3.08;;;;;;;13.93;44.19;99363.03;5092901;28;20463;-52
2021/11/17 12:26:40;;;;;;;7.32;3.95;;;;;;;13.97;44.51;99358.97;5091385;28;20133;-52
2021/11/17 12:29:25;;;;;;;7.28;1.65;;;;;;;14.09;44.33;99362.59;5091545;28;20402;-53
2021/11/17 12:31:56;;;;;;;1.60;0.77;;;;;;;14.06;43.32;99364.84;5091528;28;20023;-52
2021/11/17 12:34:48;;;;;;;8.45;7.03;;;;;;;13.73;43.68;99363.06;5092867;28;20024;-53
2021/11/17 12:37:23;;;;;;;4.00;1.13;;;;;;;13.46;43.87;99359.59;5092793;28;20025;-53
2021/11/17 12:40:04;;;;;;;4.63;1.50;;;;;;;13.19;44.30;99362.19;5091376;28;20119;-53
2021/11/17 12:42:34;;;;;;;12.10;3.70;;;;;;;12.98;44.91;99363.16;5091472;28;20036;-52
2021/11/17 12:45:11;;;;;;;2.25;0.70;;;;;;;12.90;44.65;99353.59;5091354;28;20501;-52
2021/11/17 12:48:05;;;;;;;5.70;0.98;;;;;;;12.56;44.39;99363.22;5091316;28;20024;-52
2021/11/17 12:50:43;;;;;;;13.75;1.17;;;;;;;12.12;45.07;99359.16;5091274;28;20027;-52
2021/11/17 12:53:20;;;;;;;3.17;1.15;;;;;;;11.68;46.24;99376.00;5091264;28;20020;-52
2021/11/17 12:56:02;;;;;;;12.05;1.38;;;;;;;11.47;46.90;99390.00;5092486;28;20050;-52
2021/11/17 12:58:57;;;;;;;5.25;1.15;;;;;;;11.44;47.39;99377.22;5092504;28;20039;-52
2021/11/17 13:01:28;;;;;;;12.98;7.68;;;;;;;11.44;47.62;99376.41;5091039;28;20035;-52
2021/11/17 13:04:20;;;;;;;11.23;2.70;;;;;;;11.37;48.11;99392.13;5092343;28;20020;-52
2021/11/17 13:06:52;;;;;;;4.75;1.92;;;;;;;11.45;48.16;99388.53;5080164;28;20036;-52
2021/11/17 13:09:28;;;;;;;4.68;1.52;;;;;;;11.51;47.76;99382.53;5092184;28;20111;-52
2021/11/17 13:12:11;;;;;;;15.13;2.22;;;;;;;11.59;47.89;99382.44;5092244;28;20057;-52
2021/11/17 13:14:43;;;;;;;6.85;1.27;;;;;;;11.65;47.82;99383.47;5092217;28;20390;-52
2021/11/17 13:17:16;;;;;;;4.80;1.23;;;;;;;11.68;47.51;99380.47;5092122;28;20066;-52
2021/11/17 13:19:45;;;;;;;7.90;1.27;;;;;;;11.64;47.49;99384.47;5090827;28;20027;-53
2021/11/17 13:22:26;;;;;;;10.48;2.42;;;;;;;11.73;47.58;99371.00;5091654;28;20028;-53
2021/11/17 13:25:14;;;;;;;5.20;1.38;;;;;;;11.77;47.44;99384.56;5092101;28;20024;-52
2021/11/17 13:28:04;;;;;;;13.45;1.40;;;;;;;11.73;47.57;99383.31;5091769;28;20081;-52
2021/11/17 13:30:48;;;;;;;8.70;1.00;;;;;;;11.77;47.09;99369.63;5091965;28;20028;-52
2021/11/17 13:33:28;;;;;;;9.05;3.58;;;;;;;11.74;47.24;99380.50;5073918;28;20021;-53
2021/11/17 13:36:08;;;;;;;7.40;1.20;;;;;;;11.58;47.85;99380.78;5090567;28;20397;-51
2021/11/17 13:38:40;;;;;;;9.60;2.58;;;;;;;11.58;48.07;99370.28;5091934;28;20497;-51
2021/11/17 13:41:09;;;;;;;7.35;1.27;;;;;;;11.60;48.28;99363.00;5091791;28;20039;-52
2021/11/17 13:43:38;;;;;;;7.88;1.92;;;;;;;11.40;48.24;99382.03;5091800;28;20035;-51
2021/11/17 13:46:08;;;;;;;4.93;1.33;;;;;;;11.24;49.17;99394.63;5091783;28;20501;-52
2021/11/17 13:48:38;;;;;;;8.30;1.55;;;;;;;11.14;49.19;99392.28;5090412;28;20065;-52
2021/11/17 13:51:05;;;;;;;12.70;4.22;;;;;;;11.04;49.87;99383.91;5092020;28;20074;-52
2021/11/17 13:53:31;;;;;;;1.33;1.00;;;;;;;11.05;49.90;99393.44;5091766;28;20017;-52
2021/11/17 13:56:09;;;;;;;4.80;0.90;;;;;;;11.07;50.04;99391.44;5090382;28;20028;-52
2021/11/17 13:58:34;;;;;;;6.75;1.23;;;;;;;11.02;50.25;99388.53;5091749;28;20036;-52
2021/11/17 14:01:02;;;;;;;2.85;1.30;;;;;;;11.08;50.40;99390.41;5091616;28;20021;-52
2021/11/17 14:03:31;;;;;;;2.70;1.70;;;;;;;11.09;50.24;99389.44;5091653;28;20027;-52
2021/11/17 14:06:02;;;;;;;7.45;1.10;;;;;;;11.01;50.24;99392.97;5091625;28;20024;-52
2021/11/17 14:08:30;;;;;;;4.28;0.95;;;;;;;10.91;50.64;99395.91;5091564;28;20028;-52
2021/11/17 14:10:56;;;;;;;3.08;1.10;;;;;;;10.86;50.87;99407.94;5091582;28;20073;-52
2021/11/17 14:13:22;;;;;;;4.70;1.10;;;;;;;10.83;51.16;99400.44;5090234;28;20020;-53
2021/11/17 14:15:47;;;;;;;4.47;1.52;;;;;;;10.84;51.54;99405.50;5091513;28;20570;-52
2021/11/17 14:18:14;;;;;;;6.68;1.48;;;;;;;10.86;51.51;99408.75;5091492;28;20040;-52
2021/11/17 14:20:41;;;;;;;6.53;1.67;;;;;;;10.85;51.88;99401.09;5090159;28;20050;-53
2021/11/17 14:23:08;;;;;;;3.72;1.42;;;;;;;10.88;51.66;99411.19;5090146;28;20020;-52
2021/11/17 14:25:35;;;;;;;5.18;1.83;;;;;;;10.95;51.34;99407.66;5090085;28;20054;-52
2021/11/17 14:28:06;;;;;;;4.47;1.40;;;;;;;10.93;51.64;99404.41;5089782;28;20074;-52
2021/11/17 14:30:43;;;;;;;3.05;1.30;;;;;;;10.96;51.48;99414.53;5090094;28;20435;-52
2021/11/17 14:33:12;;;;;;;2.00;1.33;;;;;;;10.99;51.23;99413.38;5091601;28;20036;-52
2021/11/17 14:35:38;;;;;;;5.30;2.60;;;;;;;10.82;51.68;99411.94;5093753;28;20035;-52
2021/11/17 14:38:05;;;;;;;3.40;1.50;;;;;;;10.78;52.14;99411.47;5093729;28;20032;-52
2021/11/17 14:40:33;;;;;;;2.35;1.42;;;;;;;10.83;52.12;99403.06;5095019;28;20456;-52
2021/11/17 14:42:59;;;;;;;2.50;1.20;;;;;;;10.93;52.06;99404.41;5093639;28;20550;-52
2021/11/17 14:45:27;;;;;;;4.25;1.65;;;;;;;10.97;51.95;99404.84;5094932;28;20093;-52